sensor_id;sensor_type;location;lat;lon;timestamp;P1;durP1;ratioP1;P2;durP2;ratioP2
33287;SDS011;19657;50.452;30.372;2024-03-02T00:02:31;66.00;;;31.70;;
33287;SDS011;19657;50.452;30.372;2024-03-02T00:05:18;53.50;;;29.20;;
33287;SDS011;19657;50.452;30.372;2024-03-02T00:08:05;55.70;;;29.00;;
33287;SDS011;19657;50.452;30.372;2024-03-02T00:10:57;57.20;;;31.40;;
33287;SDS011;19657;50.452;30.372;2024-03-02T00:13:44;57.20;;;32.30;;
33287;SDS011;19657;50.452;30.372;2024-03-02T00:16:31;62.20;;;31.00;;
33287;SDS011;19657;50.452;30.372;2024-03-02T00:19:18;51.00;;;29.10;;
33287;SDS011;19657;50.452;30.372;2024-03-02T00:22:04;53.10;;;29.00;;
33287;SDS011;19657;50.452;30.372;2024-03-02T00:24:49;62.30;;;30.80;;
33287;SDS011;19657;50.452;30.372;2024-03-02T00:27:35;58.80;;;32.10;;
33287;SDS011;19657;50.452;30.372;2024-03-02T00:33:22;58.10;;;32.80;;
33287;SDS011;19657;50.452;30.372;2024-03-02T00:36:09;56.10;;;31.30;;
33287;SDS011;19657;50.452;30.372;2024-03-02T00:38:56;54.20;;;28.50;;
33287;SDS011;19657;50.452;30.372;2024-03-02T00:41:42;54.80;;;29.70;;
33287;SDS011;19657;50.452;30.372;2024-03-02T00:44:28;58.00;;;30.30;;
33287;SDS011;19657;50.452;30.372;2024-03-02T00:47:20;57.60;;;31.20;;
33287;SDS011;19657;50.452;30.372;2024-03-02T00:50:06;57.40;;;30.80;;
33287;SDS011;19657;50.452;30.372;2024-03-02T00:53:05;52.00;;;29.20;;
33287;SDS011;19657;50.452;30.372;2024-03-02T00:55:51;53.10;;;29.90;;
33287;SDS011;19657;50.452;30.372;2024-03-02T00:58:37;56.60;;;31.90;;
33287;SDS011;19657;50.452;30.372;2024-03-02T01:01:23;52.70;;;29.30;;
33287;SDS011;19657;50.452;30.372;2024-03-02T01:04:09;57.40;;;30.90;;
33287;SDS011;19657;50.452;30.372;2024-03-02T01:06:54;52.90;;;29.20;;
33287;SDS011;19657;50.452;30.372;2024-03-02T01:09:40;53.20;;;30.00;;
33287;SDS011;19657;50.452;30.372;2024-03-02T01:12:26;58.50;;;30.70;;
33287;SDS011;19657;50.452;30.372;2024-03-02T01:15:12;62.70;;;33.20;;
33287;SDS011;19657;50.452;30.372;2024-03-02T01:17:58;60.50;;;32.90;;
33287;SDS011;19657;50.452;30.372;2024-03-02T01:20:43;52.30;;;31.40;;
33287;SDS011;19657;50.452;30.372;2024-03-02T01:23:28;57.20;;;29.80;;
33287;SDS011;19657;50.452;30.372;2024-03-02T01:26:14;57.10;;;29.10;;
33287;SDS011;19657;50.452;30.372;2024-03-02T01:29:00;52.60;;;28.90;;
33287;SDS011;19657;50.452;30.372;2024-03-02T01:31:45;70.70;;;31.40;;
33287;SDS011;19657;50.452;30.372;2024-03-02T01:34:31;62.50;;;31.60;;
33287;SDS011;19657;50.452;30.372;2024-03-02T01:37:17;49.50;;;29.10;;
33287;SDS011;19657;50.452;30.372;2024-03-02T01:40:02;55.20;;;28.00;;
33287;SDS011;19657;50.452;30.372;2024-03-02T01:42:54;53.20;;;27.50;;
33287;SDS011;19657;50.452;30.372;2024-03-02T01:45:41;57.60;;;29.00;;
33287;SDS011;19657;50.452;30.372;2024-03-02T01:48:27;51.10;;;28.20;;
33287;SDS011;19657;50.452;30.372;2024-03-02T01:51:12;54.60;;;30.10;;
33287;SDS011;19657;50.452;30.372;2024-03-02T01:53:58;48.80;;;28.40;;
33287;SDS011;19657;50.452;30.372;2024-03-02T01:56:44;60.70;;;29.50;;
33287;SDS011;19657;50.452;30.372;2024-03-02T01:59:30;54.50;;;29.50;;
33287;SDS011;19657;50.452;30.372;2024-03-02T02:02:15;53.40;;;30.20;;
33287;SDS011;19657;50.452;30.372;2024-03-02T02:05:02;49.00;;;27.80;;
33287;SDS011;19657;50.452;30.372;2024-03-02T02:07:49;52.30;;;27.90;;
33287;SDS011;19657;50.452;30.372;2024-03-02T02:10:36;52.70;;;28.80;;
33287;SDS011;19657;50.452;30.372;2024-03-02T02:13:21;48.80;;;27.60;;
33287;SDS011;19657;50.452;30.372;2024-03-02T02:16:07;49.90;;;27.70;;
33287;SDS011;19657;50.452;30.372;2024-03-02T02:18:53;49.20;;;27.90;;
33287;SDS011;19657;50.452;30.372;2024-03-02T02:21:42;55.00;;;30.50;;
33287;SDS011;19657;50.452;30.372;2024-03-02T02:24:28;63.30;;;34.00;;
33287;SDS011;19657;50.452;30.372;2024-03-02T02:27:14;60.90;;;34.00;;
33287;SDS011;19657;50.452;30.372;2024-03-02T02:30:00;50.90;;;30.40;;
33287;SDS011;19657;50.452;30.372;2024-03-02T02:32:48;57.20;;;31.30;;
33287;SDS011;19657;50.452;30.372;2024-03-02T02:35:34;49.90;;;31.00;;
33287;SDS011;19657;50.452;30.372;2024-03-02T02:38:20;63.00;;;33.70;;
33287;SDS011;19657;50.452;30.372;2024-03-02T02:41:06;55.10;;;30.90;;
33287;SDS011;19657;50.452;30.372;2024-03-02T02:43:52;51.90;;;28.20;;
33287;SDS011;19657;50.452;30.372;2024-03-02T02:46:37;55.90;;;29.90;;
33287;SDS011;19657;50.452;30.372;2024-03-02T02:49:23;60.40;;;31.70;;
33287;SDS011;19657;50.452;30.372;2024-03-02T02:52:10;51.00;;;29.70;;
33287;SDS011;19657;50.452;30.372;2024-03-02T02:54:55;48.90;;;28.60;;
33287;SDS011;19657;50.452;30.372;2024-03-02T02:57:41;55.40;;;28.50;;
33287;SDS011;19657;50.452;30.372;2024-03-02T03:00:30;63.30;;;32.80;;
33287;SDS011;19657;50.452;30.372;2024-03-02T03:03:15;54.50;;;30.40;;
33287;SDS011;19657;50.452;30.372;2024-03-02T03:06:01;50.40;;;30.40;;
33287;SDS011;19657;50.452;30.372;2024-03-02T03:08:47;59.30;;;31.70;;
33287;SDS011;19657;50.452;30.372;2024-03-02T03:11:33;54.10;;;28.80;;
33287;SDS011;19657;50.452;30.372;2024-03-02T03:14:19;57.90;;;29.10;;
33287;SDS011;19657;50.452;30.372;2024-03-02T03:17:05;61.50;;;29.70;;
33287;SDS011;19657;50.452;30.372;2024-03-02T03:19:52;62.00;;;32.00;;
33287;SDS011;19657;50.452;30.372;2024-03-02T03:22:37;58.80;;;30.30;;
33287;SDS011;19657;50.452;30.372;2024-03-02T03:25:23;65.10;;;29.70;;
33287;SDS011;19657;50.452;30.372;2024-03-02T03:28:09;55.30;;;30.30;;
33287;SDS011;19657;50.452;30.372;2024-03-02T03:30:55;51.30;;;30.50;;
33287;SDS011;19657;50.452;30.372;2024-03-02T03:33:41;60.20;;;29.60;;
33287;SDS011;19657;50.452;30.372;2024-03-02T03:36:26;62.40;;;33.10;;
33287;SDS011;19657;50.452;30.372;2024-03-02T03:39:12;68.60;;;30.00;;
33287;SDS011;19657;50.452;30.372;2024-03-02T03:41:57;59.20;;;32.00;;
33287;SDS011;19657;50.452;30.372;2024-03-02T03:44:43;63.50;;;34.80;;
33287;SDS011;19657;50.452;30.372;2024-03-02T03:47:28;63.30;;;34.00;;
33287;SDS011;19657;50.452;30.372;2024-03-02T03:50:14;65.40;;;35.30;;
33287;SDS011;19657;50.452;30.372;2024-03-02T03:53:00;68.40;;;36.60;;
33287;SDS011;19657;50.452;30.372;2024-03-02T03:55:45;79.00;;;37.90;;
33287;SDS011;19657;50.452;30.372;2024-03-02T03:58:32;65.80;;;36.90;;
33287;SDS011;19657;50.452;30.372;2024-03-02T04:01:18;66.50;;;36.10;;
33287;SDS011;19657;50.452;30.372;2024-03-02T04:04:04;65.70;;;36.10;;
33287;SDS011;19657;50.452;30.372;2024-03-02T04:06:50;64.50;;;34.40;;
33287;SDS011;19657;50.452;30.372;2024-03-02T04:09:35;66.20;;;36.20;;
33287;SDS011;19657;50.452;30.372;2024-03-02T04:12:21;63.70;;;34.90;;
33287;SDS011;19657;50.452;30.372;2024-03-02T04:15:07;64.20;;;34.60;;
33287;SDS011;19657;50.452;30.372;2024-03-02T04:17:53;64.20;;;34.90;;
33287;SDS011;19657;50.452;30.372;2024-03-02T04:20:39;65.70;;;34.60;;
33287;SDS011;19657;50.452;30.372;2024-03-02T04:23:25;63.70;;;35.00;;
33287;SDS011;19657;50.452;30.372;2024-03-02T04:26:11;60.30;;;35.30;;
33287;SDS011;19657;50.452;30.372;2024-03-02T04:28:57;61.20;;;35.00;;
33287;SDS011;19657;50.452;30.372;2024-03-02T04:31:42;60.20;;;33.90;;
33287;SDS011;19657;50.452;30.372;2024-03-02T04:34:28;59.50;;;32.80;;
33287;SDS011;19657;50.452;30.372;2024-03-02T04:37:14;60.80;;;33.10;;
33287;SDS011;19657;50.452;30.372;2024-03-02T04:39:59;58.70;;;32.00;;
33287;SDS011;19657;50.452;30.372;2024-03-02T04:42:45;55.00;;;30.90;;
33287;SDS011;19657;50.452;30.372;2024-03-02T04:45:31;54.00;;;31.50;;
33287;SDS011;19657;50.452;30.372;2024-03-02T04:48:17;52.80;;;32.20;;
33287;SDS011;19657;50.452;30.372;2024-03-02T04:51:02;56.30;;;30.20;;
33287;SDS011;19657;50.452;30.372;2024-03-02T04:53:48;59.10;;;32.70;;
33287;SDS011;19657;50.452;30.372;2024-03-02T04:56:34;58.70;;;32.40;;
33287;SDS011;19657;50.452;30.372;2024-03-02T04:59:29;60.40;;;33.70;;
33287;SDS011;19657;50.452;30.372;2024-03-02T05:02:15;57.40;;;33.90;;
33287;SDS011;19657;50.452;30.372;2024-03-02T05:05:00;60.20;;;35.10;;
33287;SDS011;19657;50.452;30.372;2024-03-02T05:07:46;61.00;;;32.40;;
33287;SDS011;19657;50.452;30.372;2024-03-02T05:10:33;55.60;;;30.50;;
33287;SDS011;19657;50.452;30.372;2024-03-02T05:13:18;59.60;;;34.70;;
33287;SDS011;19657;50.452;30.372;2024-03-02T05:16:06;68.90;;;31.90;;
33287;SDS011;19657;50.452;30.372;2024-03-02T05:18:52;62.10;;;34.80;;
33287;SDS011;19657;50.452;30.372;2024-03-02T05:21:38;67.00;;;35.20;;
33287;SDS011;19657;50.452;30.372;2024-03-02T05:24:24;73.70;;;35.00;;
33287;SDS011;19657;50.452;30.372;2024-03-02T05:27:12;56.10;;;32.10;;
33287;SDS011;19657;50.452;30.372;2024-03-02T05:29:58;57.70;;;32.50;;
33287;SDS011;19657;50.452;30.372;2024-03-02T05:32:44;59.50;;;32.80;;
33287;SDS011;19657;50.452;30.372;2024-03-02T05:35:30;56.30;;;32.80;;
33287;SDS011;19657;50.452;30.372;2024-03-02T05:38:15;65.20;;;33.70;;
33287;SDS011;19657;50.452;30.372;2024-03-02T05:41:01;58.10;;;35.10;;
33287;SDS011;19657;50.452;30.372;2024-03-02T05:43:47;66.30;;;34.90;;
33287;SDS011;19657;50.452;30.372;2024-03-02T05:46:33;64.70;;;35.10;;
33287;SDS011;19657;50.452;30.372;2024-03-02T05:49:21;71.20;;;37.70;;
33287;SDS011;19657;50.452;30.372;2024-03-02T05:52:07;60.10;;;36.20;;
33287;SDS011;19657;50.452;30.372;2024-03-02T05:54:52;56.00;;;33.30;;
33287;SDS011;19657;50.452;30.372;2024-03-02T05:57:38;55.10;;;32.80;;
33287;SDS011;19657;50.452;30.372;2024-03-02T06:00:35;61.40;;;33.80;;
33287;SDS011;19657;50.452;30.372;2024-03-02T06:03:20;53.60;;;32.50;;
33287;SDS011;19657;50.452;30.372;2024-03-02T06:06:06;61.20;;;33.20;;
33287;SDS011;19657;50.452;30.372;2024-03-02T06:08:52;61.90;;;35.40;;
33287;SDS011;19657;50.452;30.372;2024-03-02T06:11:39;58.50;;;35.20;;
33287;SDS011;19657;50.452;30.372;2024-03-02T06:14:26;62.20;;;36.10;;
33287;SDS011;19657;50.452;30.372;2024-03-02T06:17:13;57.10;;;35.40;;
33287;SDS011;19657;50.452;30.372;2024-03-02T06:19:59;61.60;;;35.60;;
33287;SDS011;19657;50.452;30.372;2024-03-02T06:22:44;58.80;;;34.70;;
33287;SDS011;19657;50.452;30.372;2024-03-02T06:25:31;56.00;;;36.50;;
33287;SDS011;19657;50.452;30.372;2024-03-02T06:28:17;54.00;;;33.40;;
33287;SDS011;19657;50.452;30.372;2024-03-02T06:31:02;47.90;;;30.90;;
33287;SDS011;19657;50.452;30.372;2024-03-02T06:33:48;51.50;;;31.60;;
33287;SDS011;19657;50.452;30.372;2024-03-02T06:36:34;49.10;;;32.90;;
33287;SDS011;19657;50.452;30.372;2024-03-02T06:39:20;51.70;;;33.10;;
33287;SDS011;19657;50.452;30.372;2024-03-02T06:42:05;57.80;;;33.30;;
33287;SDS011;19657;50.452;30.372;2024-03-02T06:44:51;50.30;;;31.40;;
33287;SDS011;19657;50.452;30.372;2024-03-02T06:47:37;55.40;;;34.80;;
33287;SDS011;19657;50.452;30.372;2024-03-02T06:50:23;56.50;;;32.30;;
33287;SDS011;19657;50.452;30.372;2024-03-02T06:53:08;48.10;;;30.00;;
33287;SDS011;19657;50.452;30.372;2024-03-02T06:55:54;46.20;;;29.80;;
33287;SDS011;19657;50.452;30.372;2024-03-02T06:58:39;48.50;;;28.30;;
33287;SDS011;19657;50.452;30.372;2024-03-02T07:01:25;43.30;;;25.90;;
33287;SDS011;19657;50.452;30.372;2024-03-02T07:04:11;40.40;;;25.30;;
33287;SDS011;19657;50.452;30.372;2024-03-02T07:06:57;42.50;;;24.80;;
33287;SDS011;19657;50.452;30.372;2024-03-02T07:09:43;39.50;;;24.60;;
33287;SDS011;19657;50.452;30.372;2024-03-02T07:12:29;39.20;;;24.00;;
33287;SDS011;19657;50.452;30.372;2024-03-02T07:15:15;34.30;;;22.10;;
33287;SDS011;19657;50.452;30.372;2024-03-02T07:18:12;32.90;;;23.30;;
33287;SDS011;19657;50.452;30.372;2024-03-02T07:20:58;34.90;;;22.60;;
33287;SDS011;19657;50.452;30.372;2024-03-02T07:23:46;34.40;;;22.60;;
33287;SDS011;19657;50.452;30.372;2024-03-02T07:26:31;36.50;;;23.20;;
33287;SDS011;19657;50.452;30.372;2024-03-02T07:29:20;37.90;;;22.80;;
33287;SDS011;19657;50.452;30.372;2024-03-02T07:32:06;38.70;;;24.40;;
33287;SDS011;19657;50.452;30.372;2024-03-02T07:34:53;36.30;;;21.30;;
33287;SDS011;19657;50.452;30.372;2024-03-02T07:37:39;34.50;;;21.70;;
33287;SDS011;19657;50.452;30.372;2024-03-02T07:40:28;35.00;;;22.30;;
33287;SDS011;19657;50.452;30.372;2024-03-02T07:43:14;31.20;;;20.90;;
33287;SDS011;19657;50.452;30.372;2024-03-02T07:45:59;30.30;;;21.80;;
33287;SDS011;19657;50.452;30.372;2024-03-02T07:48:45;30.30;;;20.90;;
33287;SDS011;19657;50.452;30.372;2024-03-02T07:51:30;29.40;;;19.70;;
33287;SDS011;19657;50.452;30.372;2024-03-02T07:54:16;31.50;;;20.60;;
33287;SDS011;19657;50.452;30.372;2024-03-02T07:57:01;32.50;;;19.60;;
33287;SDS011;19657;50.452;30.372;2024-03-02T07:59:47;27.70;;;19.20;;
33287;SDS011;19657;50.452;30.372;2024-03-02T08:02:32;27.70;;;19.50;;
33287;SDS011;19657;50.452;30.372;2024-03-02T08:05:18;27.70;;;19.50;;
33287;SDS011;19657;50.452;30.372;2024-03-02T08:08:06;33.30;;;19.70;;
33287;SDS011;19657;50.452;30.372;2024-03-02T08:10:52;26.80;;;19.20;;
33287;SDS011;19657;50.452;30.372;2024-03-02T08:13:37;28.20;;;19.30;;
33287;SDS011;19657;50.452;30.372;2024-03-02T08:16:23;29.50;;;18.50;;
33287;SDS011;19657;50.452;30.372;2024-03-02T08:19:10;27.40;;;18.90;;
33287;SDS011;19657;50.452;30.372;2024-03-02T08:21:56;28.20;;;19.10;;
33287;SDS011;19657;50.452;30.372;2024-03-02T08:24:45;28.80;;;19.00;;
33287;SDS011;19657;50.452;30.372;2024-03-02T08:27:31;31.80;;;20.40;;
33287;SDS011;19657;50.452;30.372;2024-03-02T08:30:17;30.00;;;19.60;;
33287;SDS011;19657;50.452;30.372;2024-03-02T08:33:04;31.30;;;19.80;;
33287;SDS011;19657;50.452;30.372;2024-03-02T08:35:51;29.10;;;18.90;;
33287;SDS011;19657;50.452;30.372;2024-03-02T08:38:37;33.10;;;20.00;;
33287;SDS011;19657;50.452;30.372;2024-03-02T08:41:23;31.80;;;19.80;;
33287;SDS011;19657;50.452;30.372;2024-03-02T08:44:09;30.90;;;19.50;;
33287;SDS011;19657;50.452;30.372;2024-03-02T08:46:55;29.10;;;17.80;;
33287;SDS011;19657;50.452;30.372;2024-03-02T08:49:41;27.80;;;18.40;;
33287;SDS011;19657;50.452;30.372;2024-03-02T08:52:26;30.70;;;20.20;;
33287;SDS011;19657;50.452;30.372;2024-03-02T08:55:12;29.10;;;20.60;;
33287;SDS011;19657;50.452;30.372;2024-03-02T08:57:58;33.20;;;19.20;;
33287;SDS011;19657;50.452;30.372;2024-03-02T09:00:45;28.40;;;18.60;;
33287;SDS011;19657;50.452;30.372;2024-03-02T09:03:34;34.00;;;20.50;;
33287;SDS011;19657;50.452;30.372;2024-03-02T09:06:21;35.80;;;21.50;;
33287;SDS011;19657;50.452;30.372;2024-03-02T09:09:07;31.90;;;20.80;;
33287;SDS011;19657;50.452;30.372;2024-03-02T09:11:52;31.80;;;20.00;;
33287;SDS011;19657;50.452;30.372;2024-03-02T09:14:40;32.60;;;19.00;;
33287;SDS011;19657;50.452;30.372;2024-03-02T09:17:26;32.80;;;17.70;;
33287;SDS011;19657;50.452;30.372;2024-03-02T09:20:12;30.60;;;17.20;;
33287;SDS011;19657;50.452;30.372;2024-03-02T09:22:59;28.20;;;16.60;;
33287;SDS011;19657;50.452;30.372;2024-03-02T09:25:44;36.40;;;17.20;;
33287;SDS011;19657;50.452;30.372;2024-03-02T09:28:30;28.70;;;17.60;;
33287;SDS011;19657;50.452;30.372;2024-03-02T09:31:16;30.30;;;19.50;;
33287;SDS011;19657;50.452;30.372;2024-03-02T09:34:01;33.90;;;18.30;;
33287;SDS011;19657;50.452;30.372;2024-03-02T09:36:47;32.50;;;18.80;;
33287;SDS011;19657;50.452;30.372;2024-03-02T09:39:33;31.30;;;19.00;;
33287;SDS011;19657;50.452;30.372;2024-03-02T09:42:20;37.60;;;18.90;;
33287;SDS011;19657;50.452;30.372;2024-03-02T09:45:09;29.70;;;18.60;;
33287;SDS011;19657;50.452;30.372;2024-03-02T09:47:58;36.40;;;20.40;;
33287;SDS011;19657;50.452;30.372;2024-03-02T09:50:43;34.20;;;21.90;;
33287;SDS011;19657;50.452;30.372;2024-03-02T09:53:31;34.50;;;21.10;;
33287;SDS011;19657;50.452;30.372;2024-03-02T09:56:18;30.00;;;20.10;;
33287;SDS011;19657;50.452;30.372;2024-03-02T09:59:06;32.50;;;19.60;;
33287;SDS011;19657;50.452;30.372;2024-03-02T10:01:59;32.60;;;20.40;;
33287;SDS011;19657;50.452;30.372;2024-03-02T10:04:48;32.20;;;20.00;;
33287;SDS011;19657;50.452;30.372;2024-03-02T10:07:34;36.70;;;21.60;;
33287;SDS011;19657;50.452;30.372;2024-03-02T10:10:20;33.90;;;20.90;;
33287;SDS011;19657;50.452;30.372;2024-03-02T10:13:08;30.40;;;20.30;;
33287;SDS011;19657;50.452;30.372;2024-03-02T10:15:55;32.00;;;19.90;;
33287;SDS011;19657;50.452;30.372;2024-03-02T10:18:41;30.10;;;19.00;;
33287;SDS011;19657;50.452;30.372;2024-03-02T10:21:28;35.20;;;21.20;;
33287;SDS011;19657;50.452;30.372;2024-03-02T10:24:14;36.10;;;20.30;;
33287;SDS011;19657;50.452;30.372;2024-03-02T10:27:00;35.50;;;20.70;;
33287;SDS011;19657;50.452;30.372;2024-03-02T10:29:46;36.90;;;21.00;;
33287;SDS011;19657;50.452;30.372;2024-03-02T10:32:33;33.40;;;20.30;;
33287;SDS011;19657;50.452;30.372;2024-03-02T10:35:19;35.00;;;21.60;;
33287;SDS011;19657;50.452;30.372;2024-03-02T10:38:06;33.20;;;21.40;;
33287;SDS011;19657;50.452;30.372;2024-03-02T10:40:51;32.10;;;21.70;;
33287;SDS011;19657;50.452;30.372;2024-03-02T10:43:38;35.20;;;21.50;;
33287;SDS011;19657;50.452;30.372;2024-03-02T10:46:27;36.50;;;22.10;;
33287;SDS011;19657;50.452;30.372;2024-03-02T10:49:15;37.70;;;21.40;;
33287;SDS011;19657;50.452;30.372;2024-03-02T10:52:01;38.70;;;21.70;;
33287;SDS011;19657;50.452;30.372;2024-03-02T10:54:47;38.90;;;22.90;;
33287;SDS011;19657;50.452;30.372;2024-03-02T10:57:43;38.40;;;22.10;;
33287;SDS011;19657;50.452;30.372;2024-03-02T11:00:36;39.90;;;23.00;;
33287;SDS011;19657;50.452;30.372;2024-03-02T11:03:25;42.00;;;24.10;;
33287;SDS011;19657;50.452;30.372;2024-03-02T11:06:11;34.90;;;23.20;;
33287;SDS011;19657;50.452;30.372;2024-03-02T11:08:58;38.70;;;24.60;;
33287;SDS011;19657;50.452;30.372;2024-03-02T11:11:49;35.00;;;23.30;;
33287;SDS011;19657;50.452;30.372;2024-03-02T11:14:45;37.80;;;23.00;;
33287;SDS011;19657;50.452;30.372;2024-03-02T11:17:31;32.20;;;22.10;;
33287;SDS011;19657;50.452;30.372;2024-03-02T11:20:17;34.10;;;20.80;;
33287;SDS011;19657;50.452;30.372;2024-03-02T11:23:08;31.50;;;20.80;;
33287;SDS011;19657;50.452;30.372;2024-03-02T11:25:55;33.10;;;20.20;;
33287;SDS011;19657;50.452;30.372;2024-03-02T11:29:00;33.80;;;17.90;;
33287;SDS011;19657;50.452;30.372;2024-03-02T11:31:57;30.00;;;18.40;;
33287;SDS011;19657;50.452;30.372;2024-03-02T11:34:48;28.20;;;16.30;;
33287;SDS011;19657;50.452;30.372;2024-03-02T11:37:35;32.40;;;15.40;;
33287;SDS011;19657;50.452;30.372;2024-03-02T11:40:21;25.90;;;15.50;;
33287;SDS011;19657;50.452;30.372;2024-03-02T11:43:08;28.60;;;16.50;;
33287;SDS011;19657;50.452;30.372;2024-03-02T11:45:58;25.70;;;15.20;;
33287;SDS011;19657;50.452;30.372;2024-03-02T11:48:45;28.00;;;15.30;;
33287;SDS011;19657;50.452;30.372;2024-03-02T11:51:32;31.20;;;16.40;;
33287;SDS011;19657;50.452;30.372;2024-03-02T11:54:19;29.40;;;15.70;;
33287;SDS011;19657;50.452;30.372;2024-03-02T11:57:06;26.60;;;16.10;;
33287;SDS011;19657;50.452;30.372;2024-03-02T11:59:54;25.20;;;15.00;;
33287;SDS011;19657;50.452;30.372;2024-03-02T12:02:41;33.50;;;16.70;;
33287;SDS011;19657;50.452;30.372;2024-03-02T12:05:30;31.80;;;15.50;;
33287;SDS011;19657;50.452;30.372;2024-03-02T12:08:17;28.20;;;15.50;;
33287;SDS011;19657;50.452;30.372;2024-03-02T12:11:03;35.90;;;16.40;;
33287;SDS011;19657;50.452;30.372;2024-03-02T12:13:53;32.20;;;17.30;;
33287;SDS011;19657;50.452;30.372;2024-03-02T12:16:43;27.70;;;14.10;;
33287;SDS011;19657;50.452;30.372;2024-03-02T12:19:30;23.40;;;14.10;;
33287;SDS011;19657;50.452;30.372;2024-03-02T12:22:17;22.60;;;13.90;;
33287;SDS011;19657;50.452;30.372;2024-03-02T12:25:03;30.00;;;15.80;;
33287;SDS011;19657;50.452;30.372;2024-03-02T12:27:50;24.40;;;14.00;;
33287;SDS011;19657;50.452;30.372;2024-03-02T12:30:37;21.00;;;13.00;;
33287;SDS011;19657;50.452;30.372;2024-03-02T12:33:23;22.80;;;14.40;;
33287;SDS011;19657;50.452;30.372;2024-03-02T12:36:09;28.50;;;14.80;;
33287;SDS011;19657;50.452;30.372;2024-03-02T12:38:57;27.40;;;13.70;;
33287;SDS011;19657;50.452;30.372;2024-03-02T12:41:43;28.50;;;14.80;;
33287;SDS011;19657;50.452;30.372;2024-03-02T12:44:29;23.40;;;14.80;;
33287;SDS011;19657;50.452;30.372;2024-03-02T12:47:15;30.40;;;15.30;;
33287;SDS011;19657;50.452;30.372;2024-03-02T12:50:01;30.90;;;15.60;;
33287;SDS011;19657;50.452;30.372;2024-03-02T12:52:52;29.90;;;14.80;;
33287;SDS011;19657;50.452;30.372;2024-03-02T12:55:38;27.70;;;15.40;;
33287;SDS011;19657;50.452;30.372;2024-03-02T12:58:24;26.80;;;15.30;;
33287;SDS011;19657;50.452;30.372;2024-03-02T13:01:14;30.70;;;16.40;;
33287;SDS011;19657;50.452;30.372;2024-03-02T13:04:04;30.10;;;16.50;;
33287;SDS011;19657;50.452;30.372;2024-03-02T13:06:50;25.10;;;15.10;;
33287;SDS011;19657;50.452;30.372;2024-03-02T13:09:38;25.50;;;16.30;;
33287;SDS011;19657;50.452;30.372;2024-03-02T13:12:24;27.00;;;15.30;;
33287;SDS011;19657;50.452;30.372;2024-03-02T13:15:11;32.00;;;16.00;;
33287;SDS011;19657;50.452;30.372;2024-03-02T13:18:02;23.20;;;14.30;;
33287;SDS011;19657;50.452;30.372;2024-03-02T13:20:49;28.70;;;16.30;;
33287;SDS011;19657;50.452;30.372;2024-03-02T13:23:35;28.10;;;16.10;;
33287;SDS011;19657;50.452;30.372;2024-03-02T13:26:21;31.30;;;15.70;;
33287;SDS011;19657;50.452;30.372;2024-03-02T13:29:06;28.30;;;14.60;;
33287;SDS011;19657;50.452;30.372;2024-03-02T13:31:53;25.20;;;15.10;;
33287;SDS011;19657;50.452;30.372;2024-03-02T13:34:39;29.70;;;16.50;;
33287;SDS011;19657;50.452;30.372;2024-03-02T13:37:25;25.60;;;15.50;;
33287;SDS011;19657;50.452;30.372;2024-03-02T13:40:10;28.00;;;15.70;;
33287;SDS011;19657;50.452;30.372;2024-03-02T13:43:00;24.10;;;15.40;;
33287;SDS011;19657;50.452;30.372;2024-03-02T13:45:45;26.30;;;15.40;;
33287;SDS011;19657;50.452;30.372;2024-03-02T13:48:31;25.40;;;14.50;;
33287;SDS011;19657;50.452;30.372;2024-03-02T13:51:17;27.40;;;14.10;;
33287;SDS011;19657;50.452;30.372;2024-03-02T13:54:02;29.00;;;15.50;;
33287;SDS011;19657;50.452;30.372;2024-03-02T13:56:48;37.40;;;16.40;;
33287;SDS011;19657;50.452;30.372;2024-03-02T13:59:34;33.80;;;17.10;;
33287;SDS011;19657;50.452;30.372;2024-03-02T14:02:21;31.40;;;16.50;;
33287;SDS011;19657;50.452;30.372;2024-03-02T14:05:07;28.20;;;15.40;;
33287;SDS011;19657;50.452;30.372;2024-03-02T14:07:56;33.10;;;18.20;;
33287;SDS011;19657;50.452;30.372;2024-03-02T14:10:42;33.90;;;16.70;;
33287;SDS011;19657;50.452;30.372;2024-03-02T14:13:28;30.50;;;16.80;;
33287;SDS011;19657;50.452;30.372;2024-03-02T14:16:14;30.80;;;16.40;;
33287;SDS011;19657;50.452;30.372;2024-03-02T14:19:00;30.10;;;16.10;;
33287;SDS011;19657;50.452;30.372;2024-03-02T14:21:46;25.80;;;16.30;;
33287;SDS011;19657;50.452;30.372;2024-03-02T14:24:33;34.90;;;16.00;;
33287;SDS011;19657;50.452;30.372;2024-03-02T14:27:18;31.20;;;16.60;;
33287;SDS011;19657;50.452;30.372;2024-03-02T14:30:23;28.00;;;16.40;;
33287;SDS011;19657;50.452;30.372;2024-03-02T14:33:09;29.10;;;16.10;;
33287;SDS011;19657;50.452;30.372;2024-03-02T14:35:56;30.00;;;15.80;;
33287;SDS011;19657;50.452;30.372;2024-03-02T14:38:41;25.80;;;15.60;;
33287;SDS011;19657;50.452;30.372;2024-03-02T14:41:27;33.20;;;15.70;;
33287;SDS011;19657;50.452;30.372;2024-03-02T14:44:13;27.40;;;15.60;;
33287;SDS011;19657;50.452;30.372;2024-03-02T14:46:59;31.50;;;16.50;;
33287;SDS011;19657;50.452;30.372;2024-03-02T14:49:48;31.20;;;17.50;;
33287;SDS011;19657;50.452;30.372;2024-03-02T14:52:40;27.10;;;15.40;;
33287;SDS011;19657;50.452;30.372;2024-03-02T14:55:29;33.60;;;16.60;;
33287;SDS011;19657;50.452;30.372;2024-03-02T14:58:16;30.10;;;16.20;;
33287;SDS011;19657;50.452;30.372;2024-03-02T15:01:03;32.60;;;16.70;;
33287;SDS011;19657;50.452;30.372;2024-03-02T15:03:50;35.90;;;17.50;;
33287;SDS011;19657;50.452;30.372;2024-03-02T15:06:37;29.30;;;16.20;;
33287;SDS011;19657;50.452;30.372;2024-03-02T15:09:23;36.20;;;16.10;;
33287;SDS011;19657;50.452;30.372;2024-03-02T15:12:09;31.30;;;12.40;;
33287;SDS011;19657;50.452;30.372;2024-03-02T15:14:58;26.80;;;15.80;;
33287;SDS011;19657;50.452;30.372;2024-03-02T15:17:43;27.30;;;15.10;;
33287;SDS011;19657;50.452;30.372;2024-03-02T15:20:31;24.90;;;13.70;;
33287;SDS011;19657;50.452;30.372;2024-03-02T15:23:16;31.30;;;14.10;;
33287;SDS011;19657;50.452;30.372;2024-03-02T15:26:02;28.60;;;13.90;;
33287;SDS011;19657;50.452;30.372;2024-03-02T15:28:49;21.20;;;12.30;;
33287;SDS011;19657;50.452;30.372;2024-03-02T15:31:37;25.10;;;12.60;;
33287;SDS011;19657;50.452;30.372;2024-03-02T15:34:23;21.60;;;12.80;;
33287;SDS011;19657;50.452;30.372;2024-03-02T15:37:09;25.50;;;11.60;;
33287;SDS011;19657;50.452;30.372;2024-03-02T15:39:55;24.80;;;11.60;;
33287;SDS011;19657;50.452;30.372;2024-03-02T15:42:41;26.70;;;12.20;;
33287;SDS011;19657;50.452;30.372;2024-03-02T15:45:27;22.60;;;11.70;;
33287;SDS011;19657;50.452;30.372;2024-03-02T15:48:19;24.40;;;12.70;;
33287;SDS011;19657;50.452;30.372;2024-03-02T15:51:05;26.30;;;11.40;;
33287;SDS011;19657;50.452;30.372;2024-03-02T15:53:52;22.30;;;11.90;;
33287;SDS011;19657;50.452;30.372;2024-03-02T15:56:38;21.20;;;11.60;;
33287;SDS011;19657;50.452;30.372;2024-03-02T15:59:25;22.20;;;13.30;;
33287;SDS011;19657;50.452;30.372;2024-03-02T16:02:11;23.80;;;12.50;;
33287;SDS011;19657;50.452;30.372;2024-03-02T16:04:57;20.70;;;11.60;;